sensor_id;sensor_type;location;lat;lon;timestamp;temperature;humidity
64987;DHT22;67903;52.108;9.358;2024-01-07T00:02:41;0.20;89.90
64987;DHT22;67903;52.108;9.358;2024-01-07T00:05:26;0.30;88.70
64987;DHT22;67903;52.108;9.358;2024-01-07T00:08:13;0.00;87.50
64987;DHT22;67903;52.108;9.358;2024-01-07T00:10:58;0.20;88.40
64987;DHT22;67903;52.108;9.358;2024-01-07T00:13:45;0.00;87.90
64987;DHT22;67903;52.108;9.358;2024-01-07T00:16:31;0.10;89.50
64987;DHT22;67903;52.108;9.358;2024-01-07T00:19:17;0.20;88.50
64987;DHT22;67903;52.108;9.358;2024-01-07T00:22:03;0.20;88.20
64987;DHT22;67903;52.108;9.358;2024-01-07T00:24:49;0.00;89.10
64987;DHT22;67903;52.108;9.358;2024-01-07T00:27:35;0.00;87.50
64987;DHT22;67903;52.108;9.358;2024-01-07T00:30:21;0.00;87.50
64987;DHT22;67903;52.108;9.358;2024-01-07T00:33:07;0.00;88.90
64987;DHT22;67903;52.108;9.358;2024-01-07T00:35:52;0.00;88.70
64987;DHT22;67903;52.108;9.358;2024-01-07T00:38:38;0.10;87.00
64987;DHT22;67903;52.108;9.358;2024-01-07T00:41:23;0.00;88.80
64987;DHT22;67903;52.108;9.358;2024-01-07T00:44:10;0.00;87.90
64987;DHT22;67903;52.108;9.358;2024-01-07T00:46:55;0.00;88.60
64987;DHT22;67903;52.108;9.358;2024-01-07T00:49:41;0.10;88.30
64987;DHT22;67903;52.108;9.358;2024-01-07T00:52:27;0.00;87.10
64987;DHT22;67903;52.108;9.358;2024-01-07T00:55:12;0.00;88.00
64987;DHT22;67903;52.108;9.358;2024-01-07T00:57:58;0.00;88.00
64987;DHT22;67903;52.108;9.358;2024-01-07T01:00:43;0.20;88.40
64987;DHT22;67903;52.108;9.358;2024-01-07T01:03:29;0.30;88.70
64987;DHT22;67903;52.108;9.358;2024-01-07T01:06:14;0.20;88.10
64987;DHT22;67903;52.108;9.358;2024-01-07T01:09:00;0.00;89.00
64987;DHT22;67903;52.108;9.358;2024-01-07T01:11:45;0.00;88.50
64987;DHT22;67903;52.108;9.358;2024-01-07T01:14:31;0.00;88.50
64987;DHT22;67903;52.108;9.358;2024-01-07T01:17:16;0.00;89.20
64987;DHT22;67903;52.108;9.358;2024-01-07T01:20:02;0.00;88.90
64987;DHT22;67903;52.108;9.358;2024-01-07T01:22:48;-0.10;87.50
64987;DHT22;67903;52.108;9.358;2024-01-07T01:25:33;0.00;88.20
64987;DHT22;67903;52.108;9.358;2024-01-07T01:28:21;0.00;88.20
64987;DHT22;67903;52.108;9.358;2024-01-07T01:31:06;0.00;87.10
64987;DHT22;67903;52.108;9.358;2024-01-07T01:33:52;0.00;87.10
64987;DHT22;67903;52.108;9.358;2024-01-07T01:36:37;-0.10;86.80
64987;DHT22;67903;52.108;9.358;2024-01-07T01:39:23;-0.10;87.30
64987;DHT22;67903;52.108;9.358;2024-01-07T01:42:08;-0.10;86.40
64987;DHT22;67903;52.108;9.358;2024-01-07T01:44:54;0.00;88.20
64987;DHT22;67903;52.108;9.358;2024-01-07T01:47:42;0.00;86.40
64987;DHT22;67903;52.108;9.358;2024-01-07T01:50:29;0.00;88.10
64987;DHT22;67903;52.108;9.358;2024-01-07T01:53:15;0.00;86.90
64987;DHT22;67903;52.108;9.358;2024-01-07T01:56:01;0.00;85.50
64987;DHT22;67903;52.108;9.358;2024-01-07T01:58:50;-0.10;86.10
64987;DHT22;67903;52.108;9.358;2024-01-07T02:01:35;-0.20;85.20
64987;DHT22;67903;52.108;9.358;2024-01-07T02:04:21;-0.10;86.50
64987;DHT22;67903;52.108;9.358;2024-01-07T02:07:07;-0.10;86.00
64987;DHT22;67903;52.108;9.358;2024-01-07T02:09:53;-0.10;86.10
64987;DHT22;67903;52.108;9.358;2024-01-07T02:12:39;0.00;87.10
64987;DHT22;67903;52.108;9.358;2024-01-07T02:15:24;0.00;84.20
64987;DHT22;67903;52.108;9.358;2024-01-07T02:18:10;0.00;84.80
64987;DHT22;67903;52.108;9.358;2024-01-07T02:20:55;-0.20;85.60
64987;DHT22;67903;52.108;9.358;2024-01-07T02:23:41;-0.10;86.20
64987;DHT22;67903;52.108;9.358;2024-01-07T02:26:27;-0.10;84.60
64987;DHT22;67903;52.108;9.358;2024-01-07T02:29:15;-0.10;85.00
64987;DHT22;67903;52.108;9.358;2024-01-07T02:32:01;-0.10;84.70
64987;DHT22;67903;52.108;9.358;2024-01-07T02:34:47;-0.10;84.60
64987;DHT22;67903;52.108;9.358;2024-01-07T02:37:34;-0.10;85.00
64987;DHT22;67903;52.108;9.358;2024-01-07T02:40:19;-0.10;86.20
64987;DHT22;67903;52.108;9.358;2024-01-07T02:43:05;-0.10;86.10
64987;DHT22;67903;52.108;9.358;2024-01-07T02:45:50;-0.30;86.60
64987;DHT22;67903;52.108;9.358;2024-01-07T02:48:36;-0.30;88.00
64987;DHT22;67903;52.108;9.358;2024-01-07T02:51:21;-0.20;89.70
64987;DHT22;67903;52.108;9.358;2024-01-07T02:54:07;-0.30;88.30
64987;DHT22;67903;52.108;9.358;2024-01-07T02:56:53;-0.40;88.50
64987;DHT22;67903;52.108;9.358;2024-01-07T02:59:38;-0.30;88.90
64987;DHT22;67903;52.108;9.358;2024-01-07T03:02:24;-0.20;88.00
64987;DHT22;67903;52.108;9.358;2024-01-07T03:05:09;-0.30;87.20
64987;DHT22;67903;52.108;9.358;2024-01-07T03:07:55;-0.40;87.70
64987;DHT22;67903;52.108;9.358;2024-01-07T03:10:41;-0.30;88.40
64987;DHT22;67903;52.108;9.358;2024-01-07T03:13:26;-0.40;88.00
64987;DHT22;67903;52.108;9.358;2024-01-07T03:16:22;-0.40;87.50
64987;DHT22;67903;52.108;9.358;2024-01-07T03:19:07;-0.40;87.80
64987;DHT22;67903;52.108;9.358;2024-01-07T03:21:53;-0.40;88.80
64987;DHT22;67903;52.108;9.358;2024-01-07T03:24:38;-0.50;87.50
64987;DHT22;67903;52.108;9.358;2024-01-07T03:27:24;-0.60;88.30
64987;DHT22;67903;52.108;9.358;2024-01-07T03:30:10;-0.60;90.00
64987;DHT22;67903;52.108;9.358;2024-01-07T03:32:55;-0.60;88.60
64987;DHT22;67903;52.108;9.358;2024-01-07T03:35:40;-0.60;90.00
64987;DHT22;67903;52.108;9.358;2024-01-07T03:38:26;-0.70;88.20
64987;DHT22;67903;52.108;9.358;2024-01-07T03:41:19;-0.60;89.70
64987;DHT22;67903;52.108;9.358;2024-01-07T03:44:04;-0.60;87.70
64987;DHT22;67903;52.108;9.358;2024-01-07T03:46:51;-0.60;87.00
64987;DHT22;67903;52.108;9.358;2024-01-07T03:49:37;-0.70;86.10
64987;DHT22;67903;52.108;9.358;2024-01-07T03:52:23;-0.70;86.30
64987;DHT22;67903;52.108;9.358;2024-01-07T03:55:08;-0.70;86.90
64987;DHT22;67903;52.108;9.358;2024-01-07T03:57:54;-0.70;86.70
64987;DHT22;67903;52.108;9.358;2024-01-07T04:00:39;-0.80;86.80
64987;DHT22;67903;52.108;9.358;2024-01-07T04:03:25;-0.70;87.30
64987;DHT22;67903;52.108;9.358;2024-01-07T04:06:10;-0.70;86.70
64987;DHT22;67903;52.108;9.358;2024-01-07T04:08:56;-0.80;85.40
64987;DHT22;67903;52.108;9.358;2024-01-07T04:11:42;-0.90;86.70
64987;DHT22;67903;52.108;9.358;2024-01-07T04:14:28;-0.90;87.90
64987;DHT22;67903;52.108;9.358;2024-01-07T04:17:14;-0.80;87.90
64987;DHT22;67903;52.108;9.358;2024-01-07T04:19:59;-0.70;87.80
64987;DHT22;67903;52.108;9.358;2024-01-07T04:22:45;-0.70;86.30
64987;DHT22;67903;52.108;9.358;2024-01-07T04:25:31;-0.70;85.70
64987;DHT22;67903;52.108;9.358;2024-01-07T04:28:16;-1.00;84.40
64987;DHT22;67903;52.108;9.358;2024-01-07T04:31:02;-0.90;85.50
64987;DHT22;67903;52.108;9.358;2024-01-07T04:33:47;-1.00;82.80
64987;DHT22;67903;52.108;9.358;2024-01-07T04:36:33;-1.00;84.50
64987;DHT22;67903;52.108;9.358;2024-01-07T04:39:19;-0.90;84.90
64987;DHT22;67903;52.108;9.358;2024-01-07T04:42:04;-0.90;84.90
64987;DHT22;67903;52.108;9.358;2024-01-07T04:44:50;-0.90;85.00
64987;DHT22;67903;52.108;9.358;2024-01-07T04:47:36;-0.90;83.30
64987;DHT22;67903;52.108;9.358;2024-01-07T04:50:22;-0.90;84.00
64987;DHT22;67903;52.108;9.358;2024-01-07T04:53:08;-0.90;83.30
64987;DHT22;67903;52.108;9.358;2024-01-07T04:55:54;-0.90;83.10
64987;DHT22;67903;52.108;9.358;2024-01-07T04:58:40;-0.90;82.90
64987;DHT22;67903;52.108;9.358;2024-01-07T05:01:25;-0.90;82.90
64987;DHT22;67903;52.108;9.358;2024-01-07T05:04:11;-1.00;82.20
64987;DHT22;67903;52.108;9.358;2024-01-07T05:06:56;-1.00;83.20
64987;DHT22;67903;52.108;9.358;2024-01-07T05:09:42;-0.90;83.30
64987;DHT22;67903;52.108;9.358;2024-01-07T05:12:27;-1.10;81.40
64987;DHT22;67903;52.108;9.358;2024-01-07T05:15:13;-0.90;83.50
64987;DHT22;67903;52.108;9.358;2024-01-07T05:17:58;-0.90;81.80
64987;DHT22;67903;52.108;9.358;2024-01-07T05:20:44;-0.90;81.90
64987;DHT22;67903;52.108;9.358;2024-01-07T05:23:30;-1.00;83.00
64987;DHT22;67903;52.108;9.358;2024-01-07T05:26:15;-0.90;83.70
64987;DHT22;67903;52.108;9.358;2024-01-07T05:29:01;-1.00;82.00
64987;DHT22;67903;52.108;9.358;2024-01-07T05:31:46;-1.10;80.70
64987;DHT22;67903;52.108;9.358;2024-01-07T05:34:32;-1.10;81.90
64987;DHT22;67903;52.108;9.358;2024-01-07T05:37:18;-1.00;82.20
64987;DHT22;67903;52.108;9.358;2024-01-07T05:40:03;-1.10;78.00
64987;DHT22;67903;52.108;9.358;2024-01-07T05:42:51;-1.20;81.10
64987;DHT22;67903;52.108;9.358;2024-01-07T05:45:37;-1.30;78.50
64987;DHT22;67903;52.108;9.358;2024-01-07T05:48:23;-1.30;80.00
64987;DHT22;67903;52.108;9.358;2024-01-07T05:51:08;-1.30;80.10
64987;DHT22;67903;52.108;9.358;2024-01-07T05:53:54;-1.20;79.60
64987;DHT22;67903;52.108;9.358;2024-01-07T05:56:40;-1.20;79.90
64987;DHT22;67903;52.108;9.358;2024-01-07T05:59:26;-1.10;79.60
64987;DHT22;67903;52.108;9.358;2024-01-07T06:02:11;-1.00;79.20
64987;DHT22;67903;52.108;9.358;2024-01-07T06:05:02;-1.20;78.70
64987;DHT22;67903;52.108;9.358;2024-01-07T06:07:48;-1.10;78.60
64987;DHT22;67903;52.108;9.358;2024-01-07T06:10:33;-1.10;78.20
64987;DHT22;67903;52.108;9.358;2024-01-07T06:13:19;-1.10;76.70
64987;DHT22;67903;52.108;9.358;2024-01-07T06:16:05;-1.20;78.00
64987;DHT22;67903;52.108;9.358;2024-01-07T06:18:50;-1.10;76.90
64987;DHT22;67903;52.108;9.358;2024-01-07T06:21:36;-1.10;77.50
64987;DHT22;67903;52.108;9.358;2024-01-07T06:24:21;-1.10;77.50
64987;DHT22;67903;52.108;9.358;2024-01-07T06:27:07;-1.10;77.60
64987;DHT22;67903;52.108;9.358;2024-01-07T06:29:52;-1.00;76.40
64987;DHT22;67903;52.108;9.358;2024-01-07T06:32:38;-1.10;75.50
64987;DHT22;67903;52.108;9.358;2024-01-07T06:35:23;-1.10;75.80
64987;DHT22;67903;52.108;9.358;2024-01-07T06:38:09;-1.10;76.00
64987;DHT22;67903;52.108;9.358;2024-01-07T06:40:54;-1.10;75.40
64987;DHT22;67903;52.108;9.358;2024-01-07T06:43:44;-1.10;75.80
64987;DHT22;67903;52.108;9.358;2024-01-07T06:46:30;-1.10;77.00
64987;DHT22;67903;52.108;9.358;2024-01-07T06:49:15;-1.10;76.50
64987;DHT22;67903;52.108;9.358;2024-01-07T06:52:01;-1.00;77.10
64987;DHT22;67903;52.108;9.358;2024-01-07T06:54:46;-1.00;75.90
64987;DHT22;67903;52.108;9.358;2024-01-07T06:57:32;-1.10;74.90
64987;DHT22;67903;52.108;9.358;2024-01-07T07:00:18;-1.10;75.10
64987;DHT22;67903;52.108;9.358;2024-01-07T07:03:03;-1.20;74.50
64987;DHT22;67903;52.108;9.358;2024-01-07T07:05:50;-1.10;74.50
64987;DHT22;67903;52.108;9.358;2024-01-07T07:08:36;-1.10;74.70
64987;DHT22;67903;52.108;9.358;2024-01-07T07:11:21;-1.10;74.10
64987;DHT22;67903;52.108;9.358;2024-01-07T07:14:07;-1.30;73.00
64987;DHT22;67903;52.108;9.358;2024-01-07T07:16:52;-1.40;73.10
64987;DHT22;67903;52.108;9.358;2024-01-07T07:19:38;-1.50;73.00
64987;DHT22;67903;52.108;9.358;2024-01-07T07:22:28;-1.40;73.30
64987;DHT22;67903;52.108;9.358;2024-01-07T07:25:14;-1.40;73.40
64987;DHT22;67903;52.108;9.358;2024-01-07T07:27:59;-1.50;73.20
64987;DHT22;67903;52.108;9.358;2024-01-07T07:30:44;-1.50;73.30
64987;DHT22;67903;52.108;9.358;2024-01-07T07:33:33;-1.50;73.20
64987;DHT22;67903;52.108;9.358;2024-01-07T07:36:19;-1.50;72.70
64987;DHT22;67903;52.108;9.358;2024-01-07T07:39:04;-1.50;73.20
64987;DHT22;67903;52.108;9.358;2024-01-07T07:41:50;-1.50;74.00
64987;DHT22;67903;52.108;9.358;2024-01-07T07:44:35;-1.60;73.20
64987;DHT22;67903;52.108;9.358;2024-01-07T07:47:21;-1.60;74.30
64987;DHT22;67903;52.108;9.358;2024-01-07T07:50:07;-1.60;72.90
64987;DHT22;67903;52.108;9.358;2024-01-07T07:52:52;-1.60;72.20
64987;DHT22;67903;52.108;9.358;2024-01-07T07:55:38;-1.70;72.20
64987;DHT22;67903;52.108;9.358;2024-01-07T07:58:24;-1.70;72.30
64987;DHT22;67903;52.108;9.358;2024-01-07T08:01:09;-1.70;73.00
64987;DHT22;67903;52.108;9.358;2024-01-07T08:03:55;-1.60;71.90
64987;DHT22;67903;52.108;9.358;2024-01-07T08:06:41;-1.60;72.40
64987;DHT22;67903;52.108;9.358;2024-01-07T08:09:28;-1.50;72.20
64987;DHT22;67903;52.108;9.358;2024-01-07T08:12:13;-1.60;72.00
64987;DHT22;67903;52.108;9.358;2024-01-07T08:14:59;-1.50;71.50
64987;DHT22;67903;52.108;9.358;2024-01-07T08:17:44;-1.50;71.30
64987;DHT22;67903;52.108;9.358;2024-01-07T08:20:30;-1.50;71.10
64987;DHT22;67903;52.108;9.358;2024-01-07T08:23:15;-1.50;71.70
64987;DHT22;67903;52.108;9.358;2024-01-07T08:26:02;-1.50;71.30
64987;DHT22;67903;52.108;9.358;2024-01-07T08:28:47;-1.50;71.30
64987;DHT22;67903;52.108;9.358;2024-01-07T08:31:32;-1.50;72.20
64987;DHT22;67903;52.108;9.358;2024-01-07T08:34:18;-1.50;71.30
64987;DHT22;67903;52.108;9.358;2024-01-07T08:37:04;-1.50;70.70
64987;DHT22;67903;52.108;9.358;2024-01-07T08:39:50;-1.50;71.70
64987;DHT22;67903;52.108;9.358;2024-01-07T08:42:36;-1.50;71.40
64987;DHT22;67903;52.108;9.358;2024-01-07T08:45:21;-1.50;70.90
64987;DHT22;67903;52.108;9.358;2024-01-07T08:48:07;-1.40;70.90
64987;DHT22;67903;52.108;9.358;2024-01-07T08:50:53;-1.40;71.20
64987;DHT22;67903;52.108;9.358;2024-01-07T08:53:38;-1.50;70.60
64987;DHT22;67903;52.108;9.358;2024-01-07T08:56:24;-1.50;71.50
64987;DHT22;67903;52.108;9.358;2024-01-07T08:59:10;-1.50;71.30
64987;DHT22;67903;52.108;9.358;2024-01-07T09:01:56;-1.50;71.20
64987;DHT22;67903;52.108;9.358;2024-01-07T09:04:41;-1.50;72.10
64987;DHT22;67903;52.108;9.358;2024-01-07T09:07:27;-1.50;72.60
64987;DHT22;67903;52.108;9.358;2024-01-07T09:10:13;-1.50;72.20
64987;DHT22;67903;52.108;9.358;2024-01-07T09:12:59;-1.50;72.30
64987;DHT22;67903;52.108;9.358;2024-01-07T09:15:45;-1.40;71.90
64987;DHT22;67903;52.108;9.358;2024-01-07T09:18:30;-1.30;72.20
64987;DHT22;67903;52.108;9.358;2024-01-07T09:21:16;-1.30;71.10
64987;DHT22;67903;52.108;9.358;2024-01-07T09:24:02;-1.30;71.50
64987;DHT22;67903;52.108;9.358;2024-01-07T09:26:47;-1.30;72.60
64987;DHT22;67903;52.108;9.358;2024-01-07T09:29:32;-1.30;71.40
64987;DHT22;67903;52.108;9.358;2024-01-07T09:32:18;-1.30;71.10
64987;DHT22;67903;52.108;9.358;2024-01-07T09:35:04;-1.50;71.50
64987;DHT22;67903;52.108;9.358;2024-01-07T09:37:51;-1.40;72.20
64987;DHT22;67903;52.108;9.358;2024-01-07T09:40:38;-1.30;71.60
64987;DHT22;67903;52.108;9.358;2024-01-07T09:43:24;-1.30;71.30
64987;DHT22;67903;52.108;9.358;2024-01-07T09:46:14;-1.20;71.60
64987;DHT22;67903;52.108;9.358;2024-01-07T09:49:00;-1.10;70.70
64987;DHT22;67903;52.108;9.358;2024-01-07T09:51:48;-1.10;71.20
64987;DHT22;67903;52.108;9.358;2024-01-07T09:54:39;-1.10;71.90
64987;DHT22;67903;52.108;9.358;2024-01-07T09:57:25;-1.10;71.10
64987;DHT22;67903;52.108;9.358;2024-01-07T10:00:12;-1.10;70.80
64987;DHT22;67903;52.108;9.358;2024-01-07T10:02:58;-1.30;70.70
64987;DHT22;67903;52.108;9.358;2024-01-07T10:05:44;-1.40;71.40
64987;DHT22;67903;52.108;9.358;2024-01-07T10:08:29;-1.40;71.90
64987;DHT22;67903;52.108;9.358;2024-01-07T10:11:15;-1.30;71.90
64987;DHT22;67903;52.108;9.358;2024-01-07T10:14:01;-1.30;72.00
64987;DHT22;67903;52.108;9.358;2024-01-07T10:16:50;-1.40;71.70
64987;DHT22;67903;52.108;9.358;2024-01-07T10:19:36;-1.30;73.00
64987;DHT22;67903;52.108;9.358;2024-01-07T10:22:22;-1.10;73.00
64987;DHT22;67903;52.108;9.358;2024-01-07T10:25:08;-1.10;71.50
64987;DHT22;67903;52.108;9.358;2024-01-07T10:27:53;-1.30;71.60
64987;DHT22;67903;52.108;9.358;2024-01-07T10:30:39;-1.30;72.50
64987;DHT22;67903;52.108;9.358;2024-01-07T10:33:25;-1.20;72.70
64987;DHT22;67903;52.108;9.358;2024-01-07T10:36:11;-1.20;72.80
64987;DHT22;67903;52.108;9.358;2024-01-07T10:38:56;-1.20;72.80
64987;DHT22;67903;52.108;9.358;2024-01-07T10:41:42;-1.20;72.70
64987;DHT22;67903;52.108;9.358;2024-01-07T10:44:31;-1.30;72.50
64987;DHT22;67903;52.108;9.358;2024-01-07T10:47:19;-1.30;73.10
64987;DHT22;67903;52.108;9.358;2024-01-07T10:50:06;-1.30;71.70
64987;DHT22;67903;52.108;9.358;2024-01-07T10:52:58;-1.30;72.00
64987;DHT22;67903;52.108;9.358;2024-01-07T10:55:54;-1.30;73.50
64987;DHT22;67903;52.108;9.358;2024-01-07T10:58:46;-1.20;73.40
64987;DHT22;67903;52.108;9.358;2024-01-07T11:01:33;-1.10;72.90
64987;DHT22;67903;52.108;9.358;2024-01-07T11:04:32;-1.10;73.00
64987;DHT22;67903;52.108;9.358;2024-01-07T11:07:28;-1.10;72.60
64987;DHT22;67903;52.108;9.358;2024-01-07T11:10:24;-1.30;71.80
64987;DHT22;67903;52.108;9.358;2024-01-07T11:13:32;-1.30;72.50
64987;DHT22;67903;52.108;9.358;2024-01-07T11:16:42;-1.30;72.40
64987;DHT22;67903;52.108;9.358;2024-01-07T11:19:29;-1.30;72.70
64987;DHT22;67903;52.108;9.358;2024-01-07T11:25:30;-1.30;73.20
64987;DHT22;67903;52.108;9.358;2024-01-07T11:28:16;-1.30;73.90
64987;DHT22;67903;52.108;9.358;2024-01-07T11:31:02;-1.30;73.20
64987;DHT22;67903;52.108;9.358;2024-01-07T11:33:49;-1.30;73.20
64987;DHT22;67903;52.108;9.358;2024-01-07T11:36:36;-1.10;74.00
64987;DHT22;67903;52.108;9.358;2024-01-07T11:39:21;-1.10;73.20
64987;DHT22;67903;52.108;9.358;2024-01-07T11:42:07;-1.10;72.30
64987;DHT22;67903;52.108;9.358;2024-01-07T11:44:54;-1.10;73.20
64987;DHT22;67903;52.108;9.358;2024-01-07T11:47:39;-1.00;73.90
64987;DHT22;67903;52.108;9.358;2024-01-07T11:50:25;-0.90;73.80
64987;DHT22;67903;52.108;9.358;2024-01-07T11:53:13;-1.10;71.50
64987;DHT22;67903;52.108;9.358;2024-01-07T11:55:59;-1.00;72.30
64987;DHT22;67903;52.108;9.358;2024-01-07T11:58:44;-0.90;72.50
64987;DHT22;67903;52.108;9.358;2024-01-07T12:01:30;-0.90;72.40
64987;DHT22;67903;52.108;9.358;2024-01-07T12:04:16;-0.80;72.50
64987;DHT22;67903;52.108;9.358;2024-01-07T12:07:02;-1.00;70.40
64987;DHT22;67903;52.108;9.358;2024-01-07T12:09:58;-1.10;71.70
64987;DHT22;67903;52.108;9.358;2024-01-07T12:12:44;-0.90;72.10
64987;DHT22;67903;52.108;9.358;2024-01-07T12:15:29;-0.80;71.60
64987;DHT22;67903;52.108;9.358;2024-01-07T12:18:15;-0.70;71.90
64987;DHT22;67903;52.108;9.358;2024-01-07T12:21:00;-0.80;72.20
64987;DHT22;67903;52.108;9.358;2024-01-07T12:23:50;-0.70;72.80
64987;DHT22;67903;52.108;9.358;2024-01-07T12:26:36;-0.70;72.30
64987;DHT22;67903;52.108;9.358;2024-01-07T12:29:23;-0.60;71.60
64987;DHT22;67903;52.108;9.358;2024-01-07T12:32:10;-0.60;71.60
64987;DHT22;67903;52.108;9.358;2024-01-07T12:34:59;-0.60;71.90
64987;DHT22;67903;52.108;9.358;2024-01-07T12:37:47;-0.60;70.80
64987;DHT22;67903;52.108;9.358;2024-01-07T12:40:33;-0.70;71.60
64987;DHT22;67903;52.108;9.358;2024-01-07T12:43:20;-0.70;70.30
64987;DHT22;67903;52.108;9.358;2024-01-07T12:46:06;-0.70;72.50
64987;DHT22;67903;52.108;9.358;2024-01-07T12:48:52;-0.70;71.70
64987;DHT22;67903;52.108;9.358;2024-01-07T12:51:38;-0.60;72.10
64987;DHT22;67903;52.108;9.358;2024-01-07T12:54:23;-0.60;71.50
64987;DHT22;67903;52.108;9.358;2024-01-07T12:57:10;-0.60;72.10
64987;DHT22;67903;52.108;9.358;2024-01-07T12:59:55;-0.70;71.60
64987;DHT22;67903;52.108;9.358;2024-01-07T13:02:41;-0.70;71.90
64987;DHT22;67903;52.108;9.358;2024-01-07T13:05:26;-0.70;73.10
64987;DHT22;67903;52.108;9.358;2024-01-07T13:08:12;-0.50;71.90
64987;DHT22;67903;52.108;9.358;2024-01-07T13:10:59;-0.70;72.10
64987;DHT22;67903;52.108;9.358;2024-01-07T13:13:45;-0.60;73.20
64987;DHT22;67903;52.108;9.358;2024-01-07T13:16:31;-0.60;71.70
64987;DHT22;67903;52.108;9.358;2024-01-07T13:19:17;-0.70;72.60
64987;DHT22;67903;52.108;9.358;2024-01-07T13:22:03;-0.70;73.50
64987;DHT22;67903;52.108;9.358;2024-01-07T13:24:48;-0.60;73.90
64987;DHT22;67903;52.108;9.358;2024-01-07T13:27:35;-0.60;73.50
64987;DHT22;67903;52.108;9.358;2024-01-07T13:30:22;-0.60;73.40
64987;DHT22;67903;52.108;9.358;2024-01-07T13:33:07;-0.70;73.40
64987;DHT22;67903;52.108;9.358;2024-01-07T13:35:53;-0.80;73.60
64987;DHT22;67903;52.108;9.358;2024-01-07T13:38:39;-0.70;73.80
64987;DHT22;67903;52.108;9.358;2024-01-07T13:41:28;-0.80;74.60
64987;DHT22;67903;52.108;9.358;2024-01-07T13:44:14;-0.80;74.00
64987;DHT22;67903;52.108;9.358;2024-01-07T13:47:03;-0.70;74.60
64987;DHT22;67903;52.108;9.358;2024-01-07T13:49:51;-0.70;74.70
64987;DHT22;67903;52.108;9.358;2024-01-07T13:52:37;-0.70;74.80
64987;DHT22;67903;52.108;9.358;2024-01-07T13:55:22;-0.70;75.20
64987;DHT22;67903;52.108;9.358;2024-01-07T13:58:11;-0.70;74.70
64987;DHT22;67903;52.108;9.358;2024-01-07T14:00:56;-0.70;74.70
64987;DHT22;67903;52.108;9.358;2024-01-07T14:03:42;-0.60;75.30
64987;DHT22;67903;52.108;9.358;2024-01-07T14:06:28;-0.60;74.40
64987;DHT22;67903;52.108;9.358;2024-01-07T14:09:13;-0.60;73.80
64987;DHT22;67903;52.108;9.358;2024-01-07T14:11:59;-0.60;73.30
64987;DHT22;67903;52.108;9.358;2024-01-07T14:14:45;-0.70;73.60
64987;DHT22;67903;52.108;9.358;2024-01-07T14:17:30;-0.70;73.30
64987;DHT22;67903;52.108;9.358;2024-01-07T14:20:16;-0.70;73.30
64987;DHT22;67903;52.108;9.358;2024-01-07T14:23:01;-0.60;74.10
64987;DHT22;67903;52.108;9.358;2024-01-07T14:25:47;-0.70;73.90
64987;DHT22;67903;52.108;9.358;2024-01-07T14:28:33;-0.60;73.80
64987;DHT22;67903;52.108;9.358;2024-01-07T14:31:19;-0.60;73.40
64987;DHT22;67903;52.108;9.358;2024-01-07T14:34:04;-0.60;73.60
64987;DHT22;67903;52.108;9.358;2024-01-07T14:36:50;-0.60;74.30
64987;DHT22;67903;52.108;9.358;2024-01-07T14:39:39;-0.60;73.90
64987;DHT22;67903;52.108;9.358;2024-01-07T14:42:25;-0.60;74.00
64987;DHT22;67903;52.108;9.358;2024-01-07T14:45:10;-0.50;74.10
64987;DHT22;67903;52.108;9.358;2024-01-07T14:47:56;-0.50;73.50
64987;DHT22;67903;52.108;9.358;2024-01-07T14:50:41;-0.70;73.70
64987;DHT22;67903;52.108;9.358;2024-01-07T14:53:29;-0.70;73.90
64987;DHT22;67903;52.108;9.358;2024-01-07T14:56:15;-0.70;74.80
64987;DHT22;67903;52.108;9.358;2024-01-07T14:59:01;-0.70;74.00
64987;DHT22;67903;52.108;9.358;2024-01-07T15:01:47;-0.90;74.70
64987;DHT22;67903;52.108;9.358;2024-01-07T15:04:32;-0.70;74.50
64987;DHT22;67903;52.108;9.358;2024-01-07T15:07:18;-0.70;74.50
64987;DHT22;67903;52.108;9.358;2024-01-07T15:10:06;-0.80;74.40
64987;DHT22;67903;52.108;9.358;2024-01-07T15:12:52;-0.90;74.20
64987;DHT22;67903;52.108;9.358;2024-01-07T15:15:47;-1.00;74.40
64987;DHT22;67903;52.108;9.358;2024-01-07T15:18:33;-0.90;74.60
64987;DHT22;67903;52.108;9.358;2024-01-07T15:21:23;-1.00;75.50
64987;DHT22;67903;52.108;9.358;2024-01-07T15:24:09;-1.00;75.60
64987;DHT22;67903;52.108;9.358;2024-01-07T15:26:55;-1.10;76.00
64987;DHT22;67903;52.108;9.358;2024-01-07T15:29:41;-1.10;76.70
64987;DHT22;67903;52.108;9.358;2024-01-07T15:32:26;-1.00;76.00
64987;DHT22;67903;52.108;9.358;2024-01-07T15:35:13;-1.00;75.60
64987;DHT22;67903;52.108;9.358;2024-01-07T15:37:58;-1.10;75.40
64987;DHT22;67903;52.108;9.358;2024-01-07T15:40:44;-1.00;75.20
64987;DHT22;67903;52.108;9.358;2024-01-07T15:43:30;-1.10;74.40
64987;DHT22;67903;52.108;9.358;2024-01-07T15:46:15;-1.10;74.20
64987;DHT22;67903;52.108;9.358;2024-01-07T15:49:01;-1.10;74.90
64987;DHT22;67903;52.108;9.358;2024-01-07T15:51:46;-1.10;75.00
64987;DHT22;67903;52.108;9.358;2024-01-07T15:54:32;-1.10;74.60
64987;DHT22;67903;52.108;9.358;2024-01-07T15:57:17;-1.10;75.20
64987;DHT22;67903;52.108;9.358;2024-01-07T16:00:04;-1.10;74.90
64987;DHT22;67903;52.108;9.358;2024-01-07T16:02:50;-1.20;74.60
64987;DHT22;67903;52.108;9.358;2024-01-07T16:05:35;-1.20;74.50
64987;DHT22;67903;52.108;9.358;2024-01-07T16:08:21;-1.20;74.60
64987;DHT22;67903;52.108;9.358;2024-01-07T16:11:06;-1.10;73.90
64987;DHT22;67903;52.108;9.358;2024-01-07T16:13:52;-1.20;74.20
64987;DHT22;67903;52.108;9.358;2024-01-07T16:16:38;-1.30;73.50
64987;DHT22;67903;52.108;9.358;2024-01-07T16:19:27;-1.30;74.50
64987;DHT22;67903;52.108;9.358;2024-01-07T16:22:13;-1.30;74.70
64987;DHT22;67903;52.108;9.358;2024-01-07T16:24:59;-1.40;73.90
64987;DHT22;67903;52.108;9.358;2024-01-07T16:27:44;-1.50;73.70
64987;DHT22;67903;52.108;9.358;2024-01-07T16:30:30;-1.40;74.60
64987;DHT22;67903;52.108;9.358;2024-01-07T16:33:16;-1.50;74.20
64987;DHT22;67903;52.108;9.358;2024-01-07T16:36:04;-1.50;74.10
64987;DHT22;67903;52.108;9.358;2024-01-07T16:38:50;-1.50;74.60
64987;DHT22;67903;52.108;9.358;2024-01-07T16:41:36;-1.40;75.40
64987;DHT22;67903;52.108;9.358;2024-01-07T16:44:22;-1.50;74.30
64987;DHT22;67903;52.108;9.358;2024-01-07T16:47:08;-1.50;73.50
64987;DHT22;67903;52.108;9.358;2024-01-07T16:49:55;-1.60;73.20
64987;DHT22;67903;52.108;9.358;2024-01-07T16:53:00;-1.50;74.40
64987;DHT22;67903;52.108;9.358;2024-01-07T16:55:47;-1.60;73.70
64987;DHT22;67903;52.108;9.358;2024-01-07T16:58:33;-1.60;74.20
64987;DHT22;67903;52.108;9.358;2024-01-07T17:01:19;-1.50;73.10
64987;DHT22;67903;52.108;9.358;2024-01-07T17:04:07;-1.50;74.00
64987;DHT22;67903;52.108;9.358;2024-01-07T17:06:53;-1.60;74.00
64987;DHT22;67903;52.108;9.358;2024-01-07T17:09:38;-1.50;74.60
64987;DHT22;67903;52.108;9.358;2024-01-07T17:12:24;-1.60;74.00
64987;DHT22;67903;52.108;9.358;2024-01-07T17:15:10;-1.60;73.60
64987;DHT22;67903;52.108;9.358;2024-01-07T17:17:56;-1.60;74.30
64987;DHT22;67903;52.108;9.358;2024-01-07T17:20:43;-1.60;74.00
64987;DHT22;67903;52.108;9.358;2024-01-07T17:23:29;-1.60;73.50
64987;DHT22;67903;52.108;9.358;2024-01-07T17:26:14;-1.70;73.50
64987;DHT22;67903;52.108;9.358;2024-01-07T17:29:00;-1.50;74.60
64987;DHT22;67903;52.108;9.358;2024-01-07T17:31:45;-1.50;73.10
64987;DHT22;67903;52.108;9.358;2024-01-07T17:34:31;-1.60;71.00
64987;DHT22;67903;52.108;9.358;2024-01-07T17:37:16;-1.60;71.60